Arroyo Hondo, New Mexico
Current Conditions -  °F | °C
As of 9:15 AM on Thursday 29 Jan 2015 (Local Time) from KSKX Reporting Station
Broken Clouds Broken Clouds  
Wind Chill: 37°   Ceiling: 11000
Heat Index: 37°   Visibility: 10mi
Dew Point: 27°   Wind: 3mph
Humidity: 65%   Direction: 300°WNW
Pressure: 30.44"   Gusts: NA
Location:  36.53°N, 105.67°W
Report Text: KSKX 291615Z AUTO 30003KT 10SM BKN110 03/M03 A3044 RMK AO1
Loading
Personal Weather Stations






























Interactive Weather Map New forecast layout! Learn more

10-Day Weather Forecast

Advertisements
Track Severe Weather on mobile